sensor_id;sensor_type;location;lat;lon;timestamp;P1;durP1;ratioP1;P2;durP2;ratioP2
36551;SDS011;22559;54.176;12.102;2024-03-08T00:02:34;10.70;;;6.90;;
36551;SDS011;22559;54.176;12.102;2024-03-08T00:05:01;9.90;;;6.20;;
36551;SDS011;22559;54.176;12.102;2024-03-08T00:07:28;14.23;;;6.93;;
36551;SDS011;22559;54.176;12.102;2024-03-08T00:09:54;12.93;;;7.03;;
36551;SDS011;22559;54.176;12.102;2024-03-08T00:12:19;11.20;;;6.27;;
36551;SDS011;22559;54.176;12.102;2024-03-08T00:14:45;12.50;;;6.43;;
36551;SDS011;22559;54.176;12.102;2024-03-08T00:17:11;12.60;;;7.07;;
36551;SDS011;22559;54.176;12.102;2024-03-08T00:19:39;10.33;;;6.77;;
36551;SDS011;22559;54.176;12.102;2024-03-08T00:22:06;10.30;;;6.03;;
36551;SDS011;22559;54.176;12.102;2024-03-08T00:24:32;9.33;;;6.67;;
36551;SDS011;22559;54.176;12.102;2024-03-08T00:26:58;13.50;;;7.03;;
36551;SDS011;22559;54.176;12.102;2024-03-08T00:29:27;11.97;;;6.30;;
36551;SDS011;22559;54.176;12.102;2024-03-08T00:31:53;8.97;;;6.20;;
36551;SDS011;22559;54.176;12.102;2024-03-08T00:34:18;10.67;;;7.07;;
36551;SDS011;22559;54.176;12.102;2024-03-08T00:36:44;11.77;;;6.80;;
36551;SDS011;22559;54.176;12.102;2024-03-08T00:39:10;12.13;;;6.47;;
36551;SDS011;22559;54.176;12.102;2024-03-08T00:41:37;9.23;;;6.40;;
36551;SDS011;22559;54.176;12.102;2024-03-08T00:44:02;10.27;;;7.37;;
36551;SDS011;22559;54.176;12.102;2024-03-08T00:46:32;10.97;;;6.73;;
36551;SDS011;22559;54.176;12.102;2024-03-08T00:48:59;10.63;;;6.73;;
36551;SDS011;22559;54.176;12.102;2024-03-08T00:51:24;12.93;;;6.93;;
36551;SDS011;22559;54.176;12.102;2024-03-08T00:53:50;11.83;;;6.40;;
36551;SDS011;22559;54.176;12.102;2024-03-08T00:56:15;12.83;;;7.03;;
36551;SDS011;22559;54.176;12.102;2024-03-08T00:58:41;14.03;;;7.17;;
36551;SDS011;22559;54.176;12.102;2024-03-08T01:01:07;10.27;;;6.80;;
36551;SDS011;22559;54.176;12.102;2024-03-08T01:03:33;10.53;;;6.30;;
36551;SDS011;22559;54.176;12.102;2024-03-08T01:05:59;8.60;;;6.30;;
36551;SDS011;22559;54.176;12.102;2024-03-08T01:10:56;10.87;;;6.37;;
36551;SDS011;22559;54.176;12.102;2024-03-08T01:13:21;11.37;;;6.77;;
36551;SDS011;22559;54.176;12.102;2024-03-08T01:15:47;10.43;;;6.37;;
36551;SDS011;22559;54.176;12.102;2024-03-08T01:18:12;12.93;;;6.70;;
36551;SDS011;22559;54.176;12.102;2024-03-08T01:20:38;8.87;;;5.93;;
36551;SDS011;22559;54.176;12.102;2024-03-08T01:23:05;10.30;;;6.67;;
36551;SDS011;22559;54.176;12.102;2024-03-08T01:25:32;11.80;;;6.57;;
36551;SDS011;22559;54.176;12.102;2024-03-08T01:28:00;9.77;;;6.10;;
36551;SDS011;22559;54.176;12.102;2024-03-08T01:30:27;10.37;;;6.40;;
36551;SDS011;22559;54.176;12.102;2024-03-08T01:32:53;9.40;;;6.60;;
36551;SDS011;22559;54.176;12.102;2024-03-08T01:35:18;12.13;;;6.70;;
36551;SDS011;22559;54.176;12.102;2024-03-08T01:37:46;9.17;;;6.67;;
36551;SDS011;22559;54.176;12.102;2024-03-08T01:40:14;11.40;;;6.40;;
36551;SDS011;22559;54.176;12.102;2024-03-08T01:42:41;10.73;;;6.30;;
36551;SDS011;22559;54.176;12.102;2024-03-08T01:45:07;9.70;;;6.33;;
36551;SDS011;22559;54.176;12.102;2024-03-08T01:47:34;10.03;;;6.53;;
36551;SDS011;22559;54.176;12.102;2024-03-08T01:50:00;9.50;;;6.50;;
36551;SDS011;22559;54.176;12.102;2024-03-08T01:52:31;9.37;;;5.97;;
36551;SDS011;22559;54.176;12.102;2024-03-08T01:54:59;11.03;;;6.83;;
36551;SDS011;22559;54.176;12.102;2024-03-08T01:57:26;11.07;;;6.50;;
36551;SDS011;22559;54.176;12.102;2024-03-08T01:59:53;9.03;;;6.10;;
36551;SDS011;22559;54.176;12.102;2024-03-08T02:02:20;10.37;;;6.03;;
36551;SDS011;22559;54.176;12.102;2024-03-08T02:04:47;10.33;;;5.90;;
36551;SDS011;22559;54.176;12.102;2024-03-08T02:07:13;13.07;;;6.23;;
36551;SDS011;22559;54.176;12.102;2024-03-08T02:09:38;11.63;;;6.43;;
36551;SDS011;22559;54.176;12.102;2024-03-08T02:12:05;11.53;;;5.80;;
36551;SDS011;22559;54.176;12.102;2024-03-08T02:14:31;10.03;;;6.37;;
36551;SDS011;22559;54.176;12.102;2024-03-08T02:17:03;7.23;;;6.27;;
36551;SDS011;22559;54.176;12.102;2024-03-08T02:19:29;10.43;;;6.00;;
36551;SDS011;22559;54.176;12.102;2024-03-08T02:21:55;9.60;;;6.33;;
36551;SDS011;22559;54.176;12.102;2024-03-08T02:24:22;9.33;;;6.73;;
36551;SDS011;22559;54.176;12.102;2024-03-08T02:26:48;9.23;;;6.63;;
36551;SDS011;22559;54.176;12.102;2024-03-08T02:29:14;10.70;;;6.40;;
36551;SDS011;22559;54.176;12.102;2024-03-08T02:31:40;11.10;;;6.47;;
36551;SDS011;22559;54.176;12.102;2024-03-08T02:34:05;11.10;;;7.07;;
36551;SDS011;22559;54.176;12.102;2024-03-08T02:36:31;13.87;;;6.80;;
36551;SDS011;22559;54.176;12.102;2024-03-08T02:39:00;11.97;;;7.77;;
36551;SDS011;22559;54.176;12.102;2024-03-08T02:41:27;10.47;;;6.40;;
36551;SDS011;22559;54.176;12.102;2024-03-08T02:43:52;10.27;;;6.87;;
36551;SDS011;22559;54.176;12.102;2024-03-08T02:46:20;10.57;;;6.73;;
36551;SDS011;22559;54.176;12.102;2024-03-08T02:48:46;9.07;;;7.00;;
36551;SDS011;22559;54.176;12.102;2024-03-08T02:51:12;13.23;;;7.40;;
36551;SDS011;22559;54.176;12.102;2024-03-08T02:53:38;12.97;;;7.40;;
36551;SDS011;22559;54.176;12.102;2024-03-08T02:56:04;11.33;;;6.10;;
36551;SDS011;22559;54.176;12.102;2024-03-08T02:58:33;14.70;;;7.00;;
36551;SDS011;22559;54.176;12.102;2024-03-08T03:00:59;12.97;;;7.07;;
36551;SDS011;22559;54.176;12.102;2024-03-08T03:03:24;14.47;;;8.03;;
36551;SDS011;22559;54.176;12.102;2024-03-08T03:05:51;17.60;;;8.13;;
36551;SDS011;22559;54.176;12.102;2024-03-08T03:08:20;16.60;;;8.97;;
36551;SDS011;22559;54.176;12.102;2024-03-08T03:10:46;24.80;;;8.90;;
36551;SDS011;22559;54.176;12.102;2024-03-08T03:13:12;11.70;;;7.17;;
36551;SDS011;22559;54.176;12.102;2024-03-08T03:15:39;24.57;;;7.70;;
36551;SDS011;22559;54.176;12.102;2024-03-08T03:18:06;19.57;;;7.23;;
36551;SDS011;22559;54.176;12.102;2024-03-08T03:20:33;13.03;;;7.47;;
36551;SDS011;22559;54.176;12.102;2024-03-08T03:23:02;23.80;;;8.50;;
36551;SDS011;22559;54.176;12.102;2024-03-08T03:25:28;17.33;;;8.30;;
36551;SDS011;22559;54.176;12.102;2024-03-08T03:27:58;15.20;;;7.97;;
36551;SDS011;22559;54.176;12.102;2024-03-08T03:30:25;14.97;;;8.37;;
36551;SDS011;22559;54.176;12.102;2024-03-08T03:32:58;12.90;;;7.07;;
36551;SDS011;22559;54.176;12.102;2024-03-08T03:35:26;15.33;;;7.83;;
36551;SDS011;22559;54.176;12.102;2024-03-08T03:37:52;18.80;;;8.07;;
36551;SDS011;22559;54.176;12.102;2024-03-08T03:40:37;19.53;;;7.93;;
36551;SDS011;22559;54.176;12.102;2024-03-08T03:43:03;21.43;;;9.00;;
36551;SDS011;22559;54.176;12.102;2024-03-08T03:45:30;22.17;;;8.70;;
36551;SDS011;22559;54.176;12.102;2024-03-08T03:48:01;22.13;;;9.77;;
36551;SDS011;22559;54.176;12.102;2024-03-08T03:50:36;22.97;;;9.83;;
36551;SDS011;22559;54.176;12.102;2024-03-08T03:53:02;36.90;;;10.57;;
36551;SDS011;22559;54.176;12.102;2024-03-08T03:55:28;43.27;;;11.87;;
36551;SDS011;22559;54.176;12.102;2024-03-08T03:57:54;26.97;;;10.13;;
36551;SDS011;22559;54.176;12.102;2024-03-08T04:00:20;25.73;;;11.47;;
36551;SDS011;22559;54.176;12.102;2024-03-08T04:02:45;28.33;;;10.23;;
36551;SDS011;22559;54.176;12.102;2024-03-08T04:05:12;41.13;;;12.50;;
36551;SDS011;22559;54.176;12.102;2024-03-08T04:07:38;37.03;;;10.50;;
36551;SDS011;22559;54.176;12.102;2024-03-08T04:10:04;24.30;;;10.17;;
36551;SDS011;22559;54.176;12.102;2024-03-08T04:12:32;32.67;;;11.57;;
36551;SDS011;22559;54.176;12.102;2024-03-08T04:14:58;24.70;;;10.43;;
36551;SDS011;22559;54.176;12.102;2024-03-08T04:17:24;29.57;;;11.67;;
36551;SDS011;22559;54.176;12.102;2024-03-08T04:19:49;23.67;;;11.70;;
36551;SDS011;22559;54.176;12.102;2024-03-08T04:22:15;30.80;;;11.80;;
36551;SDS011;22559;54.176;12.102;2024-03-08T04:24:42;31.60;;;13.03;;
36551;SDS011;22559;54.176;12.102;2024-03-08T04:27:09;75.77;;;20.37;;
36551;SDS011;22559;54.176;12.102;2024-03-08T04:29:34;29.67;;;12.73;;
36551;SDS011;22559;54.176;12.102;2024-03-08T04:32:02;35.93;;;13.47;;
36551;SDS011;22559;54.176;12.102;2024-03-08T04:34:29;52.70;;;17.20;;
36551;SDS011;22559;54.176;12.102;2024-03-08T04:36:58;35.40;;;13.63;;
36551;SDS011;22559;54.176;12.102;2024-03-08T04:39:24;43.27;;;13.60;;
36551;SDS011;22559;54.176;12.102;2024-03-08T04:41:53;62.73;;;16.77;;
36551;SDS011;22559;54.176;12.102;2024-03-08T04:44:19;40.27;;;14.80;;
36551;SDS011;22559;54.176;12.102;2024-03-08T04:46:45;34.90;;;12.47;;
36551;SDS011;22559;54.176;12.102;2024-03-08T04:49:11;75.77;;;18.27;;
36551;SDS011;22559;54.176;12.102;2024-03-08T04:51:38;57.10;;;16.23;;
36551;SDS011;22559;54.176;12.102;2024-03-08T04:54:04;55.17;;;15.60;;
36551;SDS011;22559;54.176;12.102;2024-03-08T04:56:32;108.20;;;21.03;;
36551;SDS011;22559;54.176;12.102;2024-03-08T04:58:58;36.17;;;14.37;;
36551;SDS011;22559;54.176;12.102;2024-03-08T05:01:24;37.43;;;14.67;;
36551;SDS011;22559;54.176;12.102;2024-03-08T05:03:49;51.07;;;16.67;;
36551;SDS011;22559;54.176;12.102;2024-03-08T05:06:16;48.20;;;14.73;;
36551;SDS011;22559;54.176;12.102;2024-03-08T05:08:42;45.07;;;15.53;;
36551;SDS011;22559;54.176;12.102;2024-03-08T05:11:07;65.03;;;17.33;;
36551;SDS011;22559;54.176;12.102;2024-03-08T05:13:33;43.97;;;15.93;;
36551;SDS011;22559;54.176;12.102;2024-03-08T05:15:59;34.63;;;15.03;;
36551;SDS011;22559;54.176;12.102;2024-03-08T05:18:25;56.13;;;17.07;;
36551;SDS011;22559;54.176;12.102;2024-03-08T05:20:53;27.20;;;13.23;;
36551;SDS011;22559;54.176;12.102;2024-03-08T05:23:19;55.00;;;18.27;;
36551;SDS011;22559;54.176;12.102;2024-03-08T05:25:45;74.90;;;16.03;;
36551;SDS011;22559;54.176;12.102;2024-03-08T05:28:14;31.27;;;13.83;;
36551;SDS011;22559;54.176;12.102;2024-03-08T05:30:40;36.93;;;16.53;;
36551;SDS011;22559;54.176;12.102;2024-03-08T05:33:06;71.40;;;20.07;;
36551;SDS011;22559;54.176;12.102;2024-03-08T05:35:35;50.07;;;16.37;;
36551;SDS011;22559;54.176;12.102;2024-03-08T05:38:01;26.87;;;14.50;;
36551;SDS011;22559;54.176;12.102;2024-03-08T05:40:26;70.27;;;20.47;;
36551;SDS011;22559;54.176;12.102;2024-03-08T05:42:56;36.40;;;15.10;;
36551;SDS011;22559;54.176;12.102;2024-03-08T05:45:23;47.23;;;17.40;;
36551;SDS011;22559;54.176;12.102;2024-03-08T05:47:50;42.97;;;15.87;;
36551;SDS011;22559;54.176;12.102;2024-03-08T05:50:16;32.80;;;14.80;;
36551;SDS011;22559;54.176;12.102;2024-03-08T05:52:42;53.10;;;18.40;;
36551;SDS011;22559;54.176;12.102;2024-03-08T05:55:08;36.13;;;14.10;;
36551;SDS011;22559;54.176;12.102;2024-03-08T05:57:35;27.83;;;12.93;;
36551;SDS011;22559;54.176;12.102;2024-03-08T06:00:05;37.00;;;14.33;;
36551;SDS011;22559;54.176;12.102;2024-03-08T06:02:31;44.27;;;15.77;;
36551;SDS011;22559;54.176;12.102;2024-03-08T06:04:57;39.70;;;14.63;;
36551;SDS011;22559;54.176;12.102;2024-03-08T06:07:23;44.90;;;16.90;;
36551;SDS011;22559;54.176;12.102;2024-03-08T06:09:49;38.83;;;14.87;;
36551;SDS011;22559;54.176;12.102;2024-03-08T06:12:14;39.07;;;14.17;;
36551;SDS011;22559;54.176;12.102;2024-03-08T06:14:44;63.70;;;17.03;;
36551;SDS011;22559;54.176;12.102;2024-03-08T06:17:10;34.27;;;16.57;;
36551;SDS011;22559;54.176;12.102;2024-03-08T06:19:36;53.77;;;16.30;;
36551;SDS011;22559;54.176;12.102;2024-03-08T06:22:02;27.40;;;14.07;;
36551;SDS011;22559;54.176;12.102;2024-03-08T06:24:30;28.47;;;15.03;;
36551;SDS011;22559;54.176;12.102;2024-03-08T06:26:56;34.70;;;15.53;;
36551;SDS011;22559;54.176;12.102;2024-03-08T06:29:22;34.17;;;14.27;;
36551;SDS011;22559;54.176;12.102;2024-03-08T06:31:48;28.73;;;13.47;;
36551;SDS011;22559;54.176;12.102;2024-03-08T06:34:14;28.00;;;14.20;;
36551;SDS011;22559;54.176;12.102;2024-03-08T06:36:40;31.30;;;14.17;;
36551;SDS011;22559;54.176;12.102;2024-03-08T06:39:06;36.47;;;14.83;;
36551;SDS011;22559;54.176;12.102;2024-03-08T06:41:35;47.90;;;18.00;;
36551;SDS011;22559;54.176;12.102;2024-03-08T06:44:01;39.47;;;14.90;;
36551;SDS011;22559;54.176;12.102;2024-03-08T06:46:27;44.30;;;15.33;;
36551;SDS011;22559;54.176;12.102;2024-03-08T06:48:53;115.40;;;26.75;;
36551;SDS011;22559;54.176;12.102;2024-03-08T06:51:18;45.63;;;17.83;;
36551;SDS011;22559;54.176;12.102;2024-03-08T06:53:44;34.60;;;14.20;;
36551;SDS011;22559;54.176;12.102;2024-03-08T06:56:10;26.87;;;14.07;;
36551;SDS011;22559;54.176;12.102;2024-03-08T06:58:36;31.40;;;13.40;;
36551;SDS011;22559;54.176;12.102;2024-03-08T07:01:02;43.17;;;15.33;;
36551;SDS011;22559;54.176;12.102;2024-03-08T07:03:32;29.10;;;13.93;;
36551;SDS011;22559;54.176;12.102;2024-03-08T07:05:58;40.67;;;15.27;;
36551;SDS011;22559;54.176;12.102;2024-03-08T07:08:23;35.87;;;13.53;;
36551;SDS011;22559;54.176;12.102;2024-03-08T07:10:49;39.43;;;14.57;;
36551;SDS011;22559;54.176;12.102;2024-03-08T07:13:15;26.90;;;13.70;;
36551;SDS011;22559;54.176;12.102;2024-03-08T07:15:41;41.27;;;14.87;;
36551;SDS011;22559;54.176;12.102;2024-03-08T07:18:08;31.90;;;14.43;;
36551;SDS011;22559;54.176;12.102;2024-03-08T07:20:39;32.40;;;14.90;;
36551;SDS011;22559;54.176;12.102;2024-03-08T07:23:05;46.57;;;15.43;;
36551;SDS011;22559;54.176;12.102;2024-03-08T07:25:30;39.67;;;17.50;;
36551;SDS011;22559;54.176;12.102;2024-03-08T07:27:56;33.13;;;15.43;;
36551;SDS011;22559;54.176;12.102;2024-03-08T07:30:25;30.67;;;14.90;;
36551;SDS011;22559;54.176;12.102;2024-03-08T07:33:10;28.80;;;15.03;;
36551;SDS011;22559;54.176;12.102;2024-03-08T07:35:39;30.47;;;13.77;;
36551;SDS011;22559;54.176;12.102;2024-03-08T07:38:08;29.13;;;14.97;;
36551;SDS011;22559;54.176;12.102;2024-03-08T07:40:35;29.63;;;14.83;;
36551;SDS011;22559;54.176;12.102;2024-03-08T07:43:06;30.67;;;15.20;;
36551;SDS011;22559;54.176;12.102;2024-03-08T07:45:32;29.63;;;14.80;;
36551;SDS011;22559;54.176;12.102;2024-03-08T07:47:58;35.77;;;16.73;;
36551;SDS011;22559;54.176;12.102;2024-03-08T07:50:23;32.03;;;15.97;;
36551;SDS011;22559;54.176;12.102;2024-03-08T07:52:49;36.40;;;16.40;;
36551;SDS011;22559;54.176;12.102;2024-03-08T07:55:15;33.67;;;14.37;;
36551;SDS011;22559;54.176;12.102;2024-03-08T07:57:40;35.83;;;16.40;;
36551;SDS011;22559;54.176;12.102;2024-03-08T08:00:07;34.53;;;15.20;;
36551;SDS011;22559;54.176;12.102;2024-03-08T08:02:34;37.30;;;16.37;;
36551;SDS011;22559;54.176;12.102;2024-03-08T08:05:00;32.73;;;15.97;;
36551;SDS011;22559;54.176;12.102;2024-03-08T08:07:26;33.83;;;16.57;;
36551;SDS011;22559;54.176;12.102;2024-03-08T08:09:53;35.70;;;16.97;;
36551;SDS011;22559;54.176;12.102;2024-03-08T08:12:18;38.43;;;17.50;;
36551;SDS011;22559;54.176;12.102;2024-03-08T08:14:44;33.30;;;16.17;;
36551;SDS011;22559;54.176;12.102;2024-03-08T08:17:10;37.10;;;17.37;;
36551;SDS011;22559;54.176;12.102;2024-03-08T08:19:37;33.47;;;16.83;;
36551;SDS011;22559;54.176;12.102;2024-03-08T08:22:03;33.57;;;15.73;;
36551;SDS011;22559;54.176;12.102;2024-03-08T08:24:29;39.63;;;18.27;;
36551;SDS011;22559;54.176;12.102;2024-03-08T08:26:55;53.80;;;17.93;;
36551;SDS011;22559;54.176;12.102;2024-03-08T08:29:21;38.03;;;18.30;;
36551;SDS011;22559;54.176;12.102;2024-03-08T08:31:47;37.73;;;17.17;;
36551;SDS011;22559;54.176;12.102;2024-03-08T08:34:15;33.50;;;17.23;;
36551;SDS011;22559;54.176;12.102;2024-03-08T08:36:44;36.37;;;17.70;;
36551;SDS011;22559;54.176;12.102;2024-03-08T08:39:10;37.30;;;18.97;;
36551;SDS011;22559;54.176;12.102;2024-03-08T08:41:38;41.43;;;20.13;;
36551;SDS011;22559;54.176;12.102;2024-03-08T08:44:06;36.87;;;16.63;;
36551;SDS011;22559;54.176;12.102;2024-03-08T08:46:35;39.20;;;18.07;;
36551;SDS011;22559;54.176;12.102;2024-03-08T08:49:04;38.37;;;17.40;;
36551;SDS011;22559;54.176;12.102;2024-03-08T08:51:31;37.10;;;18.03;;
36551;SDS011;22559;54.176;12.102;2024-03-08T08:53:58;37.13;;;17.50;;
36551;SDS011;22559;54.176;12.102;2024-03-08T08:56:24;36.77;;;17.60;;
36551;SDS011;22559;54.176;12.102;2024-03-08T08:58:51;40.63;;;17.77;;
36551;SDS011;22559;54.176;12.102;2024-03-08T09:01:18;36.57;;;17.37;;
36551;SDS011;22559;54.176;12.102;2024-03-08T09:03:44;34.57;;;17.03;;
36551;SDS011;22559;54.176;12.102;2024-03-08T09:06:11;31.80;;;16.40;;
36551;SDS011;22559;54.176;12.102;2024-03-08T09:08:38;40.07;;;18.30;;
36551;SDS011;22559;54.176;12.102;2024-03-08T09:11:04;39.87;;;19.10;;
36551;SDS011;22559;54.176;12.102;2024-03-08T09:13:30;36.10;;;18.17;;
36551;SDS011;22559;54.176;12.102;2024-03-08T09:15:56;35.90;;;17.90;;
36551;SDS011;22559;54.176;12.102;2024-03-08T09:18:22;37.13;;;18.03;;
36551;SDS011;22559;54.176;12.102;2024-03-08T09:20:49;36.27;;;18.23;;
36551;SDS011;22559;54.176;12.102;2024-03-08T09:23:21;38.00;;;18.83;;
36551;SDS011;22559;54.176;12.102;2024-03-08T09:25:47;36.07;;;17.60;;
36551;SDS011;22559;54.176;12.102;2024-03-08T09:28:13;38.63;;;17.87;;
36551;SDS011;22559;54.176;12.102;2024-03-08T09:30:41;33.70;;;17.43;;
36551;SDS011;22559;54.176;12.102;2024-03-08T09:33:08;33.23;;;17.80;;
36551;SDS011;22559;54.176;12.102;2024-03-08T09:35:34;40.33;;;17.37;;
36551;SDS011;22559;54.176;12.102;2024-03-08T09:38:00;31.17;;;16.73;;
36551;SDS011;22559;54.176;12.102;2024-03-08T09:40:26;34.97;;;17.23;;
36551;SDS011;22559;54.176;12.102;2024-03-08T09:42:52;32.90;;;16.83;;
36551;SDS011;22559;54.176;12.102;2024-03-08T09:45:19;30.83;;;17.10;;
36551;SDS011;22559;54.176;12.102;2024-03-08T09:47:50;29.27;;;16.43;;
36551;SDS011;22559;54.176;12.102;2024-03-08T09:50:18;30.67;;;15.50;;
36551;SDS011;22559;54.176;12.102;2024-03-08T09:52:46;27.80;;;15.63;;
36551;SDS011;22559;54.176;12.102;2024-03-08T09:55:13;31.57;;;16.43;;
36551;SDS011;22559;54.176;12.102;2024-03-08T09:57:41;31.13;;;16.50;;
36551;SDS011;22559;54.176;12.102;2024-03-08T10:00:28;31.03;;;15.17;;
36551;SDS011;22559;54.176;12.102;2024-03-08T10:02:54;27.70;;;15.87;;
36551;SDS011;22559;54.176;12.102;2024-03-08T10:05:25;29.17;;;15.13;;
36551;SDS011;22559;54.176;12.102;2024-03-08T10:07:50;25.63;;;14.30;;
36551;SDS011;22559;54.176;12.102;2024-03-08T10:10:16;30.37;;;14.10;;
36551;SDS011;22559;54.176;12.102;2024-03-08T10:12:41;26.87;;;14.73;;
36551;SDS011;22559;54.176;12.102;2024-03-08T10:15:07;29.90;;;15.33;;
36551;SDS011;22559;54.176;12.102;2024-03-08T10:17:36;25.40;;;14.33;;
36551;SDS011;22559;54.176;12.102;2024-03-08T10:20:02;28.47;;;14.40;;
36551;SDS011;22559;54.176;12.102;2024-03-08T10:22:29;27.20;;;14.97;;
36551;SDS011;22559;54.176;12.102;2024-03-08T10:24:56;25.37;;;13.97;;
36551;SDS011;22559;54.176;12.102;2024-03-08T10:27:22;25.30;;;14.67;;
36551;SDS011;22559;54.176;12.102;2024-03-08T10:29:48;26.70;;;14.73;;
36551;SDS011;22559;54.176;12.102;2024-03-08T10:32:19;29.23;;;15.17;;
36551;SDS011;22559;54.176;12.102;2024-03-08T10:34:45;25.77;;;14.50;;
36551;SDS011;22559;54.176;12.102;2024-03-08T10:37:15;27.03;;;14.70;;
36551;SDS011;22559;54.176;12.102;2024-03-08T10:39:49;30.30;;;16.63;;
36551;SDS011;22559;54.176;12.102;2024-03-08T10:42:27;29.47;;;16.63;;
36551;SDS011;22559;54.176;12.102;2024-03-08T10:45:01;29.50;;;16.23;;
36551;SDS011;22559;54.176;12.102;2024-03-08T10:47:33;31.23;;;16.43;;
36551;SDS011;22559;54.176;12.102;2024-03-08T10:50:18;31.73;;;16.20;;
36551;SDS011;22559;54.176;12.102;2024-03-08T10:52:53;27.80;;;16.53;;
36551;SDS011;22559;54.176;12.102;2024-03-08T10:55:21;32.53;;;17.37;;
36551;SDS011;22559;54.176;12.102;2024-03-08T10:57:49;27.70;;;16.00;;
36551;SDS011;22559;54.176;12.102;2024-03-08T11:00:16;32.27;;;17.53;;
36551;SDS011;22559;54.176;12.102;2024-03-08T11:02:44;35.23;;;17.83;;
36551;SDS011;22559;54.176;12.102;2024-03-08T11:05:10;30.90;;;16.77;;
36551;SDS011;22559;54.176;12.102;2024-03-08T11:07:50;30.27;;;16.93;;
36551;SDS011;22559;54.176;12.102;2024-03-08T11:10:19;27.87;;;16.40;;
36551;SDS011;22559;54.176;12.102;2024-03-08T11:12:45;29.33;;;16.47;;
36551;SDS011;22559;54.176;12.102;2024-03-08T11:15:13;27.93;;;16.97;;
36551;SDS011;22559;54.176;12.102;2024-03-08T11:20:12;28.00;;;16.20;;
36551;SDS011;22559;54.176;12.102;2024-03-08T11:25:47;24.87;;;14.57;;
36551;SDS011;22559;54.176;12.102;2024-03-08T11:28:18;26.10;;;15.40;;
36551;SDS011;22559;54.176;12.102;2024-03-08T11:30:46;25.93;;;15.50;;
36551;SDS011;22559;54.176;12.102;2024-03-08T11:33:24;24.63;;;15.37;;
36551;SDS011;22559;54.176;12.102;2024-03-08T11:36:12;23.87;;;14.87;;
36551;SDS011;22559;54.176;12.102;2024-03-08T11:38:45;22.97;;;14.53;;
36551;SDS011;22559;54.176;12.102;2024-03-08T11:41:18;22.97;;;14.43;;
36551;SDS011;22559;54.176;12.102;2024-03-08T11:43:47;23.50;;;14.17;;
36551;SDS011;22559;54.176;12.102;2024-03-08T11:46:15;22.40;;;13.70;;
36551;SDS011;22559;54.176;12.102;2024-03-08T11:48:42;21.20;;;14.03;;
36551;SDS011;22559;54.176;12.102;2024-03-08T11:51:09;21.60;;;14.03;;
36551;SDS011;22559;54.176;12.102;2024-03-08T11:53:37;22.67;;;14.70;;
36551;SDS011;22559;54.176;12.102;2024-03-08T11:56:13;20.40;;;14.23;;
36551;SDS011;22559;54.176;12.102;2024-03-08T11:58:39;21.40;;;13.53;;
36551;SDS011;22559;54.176;12.102;2024-03-08T12:01:06;18.40;;;11.97;;
36551;SDS011;22559;54.176;12.102;2024-03-08T12:03:37;17.57;;;12.83;;
36551;SDS011;22559;54.176;12.102;2024-03-08T12:06:03;16.17;;;11.60;;
36551;SDS011;22559;54.176;12.102;2024-03-08T12:08:32;16.97;;;11.00;;
36551;SDS011;22559;54.176;12.102;2024-03-08T12:10:58;18.40;;;11.57;;
36551;SDS011;22559;54.176;12.102;2024-03-08T12:13:27;14.33;;;11.03;;
36551;SDS011;22559;54.176;12.102;2024-03-08T12:15:57;15.67;;;11.50;;
36551;SDS011;22559;54.176;12.102;2024-03-08T12:18:27;17.80;;;11.93;;
36551;SDS011;22559;54.176;12.102;2024-03-08T12:21:08;15.37;;;11.00;;
36551;SDS011;22559;54.176;12.102;2024-03-08T12:23:45;17.50;;;11.23;;
36551;SDS011;22559;54.176;12.102;2024-03-08T12:28:48;19.53;;;11.53;;
36551;SDS011;22559;54.176;12.102;2024-03-08T12:31:15;19.20;;;12.57;;
36551;SDS011;22559;54.176;12.102;2024-03-08T12:33:51;18.60;;;11.77;;
36551;SDS011;22559;54.176;12.102;2024-03-08T12:36:18;17.70;;;12.70;;
36551;SDS011;22559;54.176;12.102;2024-03-08T12:38:45;17.73;;;12.13;;
36551;SDS011;22559;54.176;12.102;2024-03-08T12:41:19;17.33;;;11.77;;
36551;SDS011;22559;54.176;12.102;2024-03-08T12:43:46;16.67;;;10.63;;
36551;SDS011;22559;54.176;12.102;2024-03-08T12:46:15;13.87;;;9.97;;
36551;SDS011;22559;54.176;12.102;2024-03-08T12:48:55;15.63;;;10.33;;
36551;SDS011;22559;54.176;12.102;2024-03-08T12:51:20;15.17;;;10.27;;
36551;SDS011;22559;54.176;12.102;2024-03-08T12:53:55;15.93;;;9.83;;
36551;SDS011;22559;54.176;12.102;2024-03-08T12:56:31;16.83;;;11.10;;
36551;SDS011;22559;54.176;12.102;2024-03-08T12:59:05;17.17;;;10.37;;
36551;SDS011;22559;54.176;12.102;2024-03-08T13:01:33;14.97;;;10.60;;
36551;SDS011;22559;54.176;12.102;2024-03-08T13:04:08;15.63;;;10.33;;
36551;SDS011;22559;54.176;12.102;2024-03-08T13:06:36;17.70;;;10.00;;
36551;SDS011;22559;54.176;12.102;2024-03-08T13:09:02;14.87;;;10.17;;
36551;SDS011;22559;54.176;12.102;2024-03-08T13:11:31;26.97;;;17.10;;
36551;SDS011;22559;54.176;12.102;2024-03-08T13:14:01;14.80;;;9.73;;
36551;SDS011;22559;54.176;12.102;2024-03-08T13:16:28;16.27;;;9.90;;
36551;SDS011;22559;54.176;12.102;2024-03-08T13:18:54;14.90;;;10.70;;
36551;SDS011;22559;54.176;12.102;2024-03-08T13:21:22;16.47;;;10.00;;
36551;SDS011;22559;54.176;12.102;2024-03-08T13:23:52;14.10;;;10.03;;
36551;SDS011;22559;54.176;12.102;2024-03-08T13:26:18;17.40;;;10.10;;
36551;SDS011;22559;54.176;12.102;2024-03-08T13:28:50;15.73;;;9.80;;
36551;SDS011;22559;54.176;12.102;2024-03-08T13:31:21;17.07;;;12.53;;
36551;SDS011;22559;54.176;12.102;2024-03-08T13:33:47;13.10;;;10.03;;
36551;SDS011;22559;54.176;12.102;2024-03-08T13:36:13;11.48;;;8.55;;
36551;SDS011;22559;54.176;12.102;2024-03-08T13:38:47;12.17;;;9.40;;
36551;SDS011;22559;54.176;12.102;2024-03-08T13:41:13;15.52;;;10.38;;
36551;SDS011;22559;54.176;12.102;2024-03-08T13:43:41;16.30;;;11.60;;
36551;SDS011;22559;54.176;12.102;2024-03-08T13:46:07;14.23;;;10.27;;
36551;SDS011;22559;54.176;12.102;2024-03-08T13:48:35;14.47;;;10.40;;
36551;SDS011;22559;54.176;12.102;2024-03-08T13:51:02;15.80;;;11.40;;
36551;SDS011;22559;54.176;12.102;2024-03-08T13:53:29;15.67;;;11.30;;
36551;SDS011;22559;54.176;12.102;2024-03-08T13:55:55;15.07;;;11.10;;
36551;SDS011;22559;54.176;12.102;2024-03-08T13:58:21;16.67;;;10.73;;
36551;SDS011;22559;54.176;12.102;2024-03-08T14:00:47;13.13;;;10.43;;
36551;SDS011;22559;54.176;12.102;2024-03-08T14:03:13;16.23;;;10.67;;
36551;SDS011;22559;54.176;12.102;2024-03-08T14:05:42;15.50;;;10.40;;
36551;SDS011;22559;54.176;12.102;2024-03-08T14:08:08;17.10;;;11.07;;
36551;SDS011;22559;54.176;12.102;2024-03-08T14:10:34;16.07;;;10.93;;
36551;SDS011;22559;54.176;12.102;2024-03-08T14:13:02;16.70;;;11.03;;
36551;SDS011;22559;54.176;12.102;2024-03-08T14:15:30;17.70;;;11.13;;
36551;SDS011;22559;54.176;12.102;2024-03-08T14:17:56;17.00;;;11.20;;
36551;SDS011;22559;54.176;12.102;2024-03-08T14:20:22;15.30;;;10.57;;
36551;SDS011;22559;54.176;12.102;2024-03-08T14:22:54;15.30;;;10.47;;
36551;SDS011;22559;54.176;12.102;2024-03-08T14:25:20;16.47;;;10.77;;
36551;SDS011;22559;54.176;12.102;2024-03-08T14:27:48;16.83;;;11.67;;